createdAt,value
2022-11-13T00:01:19.585Z,71.60
2022-11-13T00:04:08.604Z,71.50
2022-11-13T00:06:59.443Z,71.40
2022-11-13T00:09:48.982Z,71.30
2022-11-13T00:12:38.398Z,71.18
2022-11-13T00:15:27.420Z,71.31
2022-11-13T00:18:16.536Z,71.19
2022-11-13T00:21:09.744Z,71.06
2022-11-13T00:23:59.109Z,71.07
2022-11-13T00:26:47.877Z,70.98
2022-11-13T00:29:36.701Z,71.13
2022-11-13T00:32:26.305Z,71.31
2022-11-13T00:35:15.650Z,71.61
2022-11-13T00:38:04.899Z,71.64
2022-11-13T00:40:54.036Z,71.72
2022-11-13T00:43:43.329Z,71.87
2022-11-13T00:46:32.400Z,71.93
2022-11-13T00:49:21.841Z,71.89
2022-11-13T00:52:11.179Z,71.88
2022-11-13T00:55:00.275Z,71.92
2022-11-13T00:57:49.495Z,72.11
2022-11-13T01:00:38.480Z,72.30
2022-11-13T01:03:27.623Z,72.35
2022-11-13T01:06:20.869Z,72.37
2022-11-13T01:09:10.181Z,72.39
2022-11-13T01:11:59.668Z,72.44
2022-11-13T01:14:49.118Z,72.46
2022-11-13T01:17:38.295Z,72.59
2022-11-13T01:20:27.932Z,72.49
2022-11-13T01:23:16.957Z,72.61
2022-11-13T01:26:14.952Z,72.71
2022-11-13T01:29:04.097Z,72.62
2022-11-13T01:31:53.152Z,72.49
2022-11-13T01:34:42.406Z,72.53
2022-11-13T01:37:31.556Z,72.52
2022-11-13T01:40:20.890Z,72.51
2022-11-13T01:43:26.850Z,72.44
2022-11-13T01:46:28.792Z,72.55
2022-11-13T01:49:29.295Z,72.59
2022-11-13T01:52:21.183Z,72.51
2022-11-13T01:55:13.910Z,72.42
2022-11-13T01:58:04.102Z,72.26
2022-11-13T02:00:53.289Z,72.06
2022-11-13T02:03:42.583Z,72.06
2022-11-13T02:06:36.039Z,72.00
2022-11-13T02:09:27.766Z,71.80
2022-11-13T02:12:20.186Z,71.85
2022-11-13T02:15:11.075Z,71.75
2022-11-13T02:18:02.608Z,71.77
2022-11-13T02:20:57.230Z,71.53
2022-11-13T02:23:50.066Z,71.47
2022-11-13T02:26:39.987Z,71.42
2022-11-13T02:29:29.591Z,71.49
2022-11-13T02:32:18.917Z,71.85
2022-11-13T02:35:08.570Z,71.98
2022-11-13T02:38:04.472Z,72.08
2022-11-13T02:40:53.672Z,72.15
2022-11-13T02:43:42.990Z,72.26
2022-11-13T02:46:31.901Z,72.16
2022-11-13T02:49:21.162Z,72.10
2022-11-13T02:52:09.959Z,71.92
2022-11-13T02:54:59.348Z,71.80
2022-11-13T02:57:48.451Z,71.62
2022-11-13T03:00:37.239Z,71.46
2022-11-13T03:03:55.920Z,71.40
2022-11-13T03:06:39.722Z,71.21
2022-11-13T03:09:29.040Z,70.87
2022-11-13T03:12:18.048Z,70.53
2022-11-13T03:15:08.523Z,70.40
2022-11-13T03:17:59.211Z,70.55
2022-11-13T03:20:53.829Z,70.60
2022-11-13T03:23:45.581Z,70.31
2022-11-13T03:26:34.692Z,69.67
2022-11-13T03:29:24.099Z,69.56
2022-11-13T03:32:13.100Z,69.74
2022-11-13T03:35:02.791Z,69.79
2022-11-13T03:37:51.648Z,69.85
2022-11-13T03:40:40.804Z,69.96
2022-11-13T03:43:30.211Z,70.15
2022-11-13T03:46:19.574Z,69.92
2022-11-13T03:49:08.638Z,69.80
2022-11-13T03:51:57.863Z,69.77
2022-11-13T03:54:47.288Z,69.96
2022-11-13T03:57:36.295Z,69.81
2022-11-13T04:00:25.558Z,69.73
2022-11-13T04:03:16.266Z,69.37
2022-11-13T04:06:05.510Z,69.67
2022-11-13T04:08:54.630Z,69.78
2022-11-13T04:11:43.832Z,69.53
2022-11-13T04:14:33.152Z,69.05
2022-11-13T04:17:22.145Z,68.76
2022-11-13T04:20:13.271Z,68.51
2022-11-13T04:23:04.698Z,68.45
2022-11-13T04:25:54.186Z,68.17
2022-11-13T04:28:43.439Z,68.18
2022-11-13T04:31:32.363Z,68.28
2022-11-13T04:34:21.724Z,68.60
2022-11-13T04:37:10.999Z,68.59
2022-11-13T04:40:00.181Z,68.61
2022-11-13T04:42:51.853Z,68.33
2022-11-13T04:45:41.056Z,68.22
2022-11-13T04:48:30.439Z,68.03
2022-11-13T04:51:19.571Z,67.87
2022-11-13T04:54:08.889Z,68.00
2022-11-13T04:56:58.392Z,68.12
2022-11-13T04:59:47.391Z,68.06
2022-11-13T05:02:36.975Z,68.03
2022-11-13T05:05:26.012Z,67.88
2022-11-13T05:08:15.169Z,67.68
2022-11-13T05:11:04.563Z,67.39
2022-11-13T05:13:54.127Z,67.51
2022-11-13T05:23:58.794Z,68.19
2022-11-13T05:26:48.300Z,67.81
2022-11-13T05:29:37.616Z,67.96
2022-11-13T05:32:26.716Z,67.65
2022-11-13T05:35:16.200Z,67.58
2022-11-13T05:38:05.473Z,67.53
2022-11-13T05:40:54.641Z,67.81
2022-11-13T05:43:44.277Z,67.66
2022-11-13T05:46:33.385Z,67.28
2022-11-13T05:49:22.622Z,67.00
2022-11-13T05:52:11.952Z,66.83
2022-11-13T05:55:01.200Z,66.61
2022-11-13T05:57:50.561Z,65.94
2022-11-13T06:00:39.964Z,65.54
2022-11-13T06:03:29.282Z,65.51
2022-11-13T06:06:19.733Z,65.83
2022-11-13T06:09:09.119Z,65.91
2022-11-13T06:11:58.500Z,66.02
2022-11-13T06:14:47.689Z,66.03
2022-11-13T06:17:36.804Z,66.04
2022-11-13T06:20:26.072Z,66.04
2022-11-13T06:23:15.535Z,65.98
2022-11-13T06:26:06.837Z,66.05
2022-11-13T06:28:58.117Z,65.82
2022-11-13T06:31:47.171Z,65.83
2022-11-13T06:34:36.253Z,65.80
2022-11-13T06:37:25.262Z,65.90
2022-11-13T06:40:15.866Z,65.95
2022-11-13T06:43:04.770Z,66.05
2022-11-13T06:45:53.895Z,66.09
2022-11-13T06:48:42.730Z,65.98
2022-11-13T06:51:32.555Z,65.76
2022-11-13T06:54:21.453Z,65.41
2022-11-13T06:57:10.832Z,65.08
2022-11-13T07:00:00.472Z,64.30
2022-11-13T07:02:52.498Z,63.54
2022-11-13T07:05:41.659Z,62.59
2022-11-13T07:08:31.204Z,61.73
2022-11-13T07:11:22.739Z,60.83
2022-11-13T07:14:13.586Z,59.39
2022-11-13T07:17:09.679Z,58.27
2022-11-13T07:19:59.474Z,58.20
2022-11-13T07:22:48.453Z,57.56
2022-11-13T07:25:37.533Z,56.70
2022-11-13T07:28:27.057Z,56.11
2022-11-13T07:31:19.734Z,55.14
2022-11-13T07:34:08.673Z,53.53
2022-11-13T07:36:57.841Z,53.51
2022-11-13T07:39:50.180Z,53.06
2022-11-13T07:42:39.434Z,52.31
2022-11-13T07:45:31.740Z,51.76
2022-11-13T07:48:21.173Z,50.94
2022-11-13T07:51:12.127Z,50.34
2022-11-13T07:54:01.223Z,49.64
2022-11-13T07:56:50.433Z,49.29
2022-11-13T07:59:39.655Z,47.94
2022-11-13T08:02:28.866Z,47.27
2022-11-13T08:05:22.883Z,48.51
2022-11-13T08:08:14.097Z,48.79
2022-11-13T08:11:10.264Z,48.31
2022-11-13T08:13:59.264Z,49.40
2022-11-13T08:16:56.796Z,49.43
2022-11-13T08:19:46.025Z,50.07
2022-11-13T08:22:35.212Z,50.17
2022-11-13T08:25:24.780Z,51.21
2022-11-13T08:28:14.310Z,51.25
2022-11-13T08:31:03.836Z,51.56
2022-11-13T08:33:52.722Z,50.67
2022-11-13T08:36:41.832Z,49.81
2022-11-13T08:39:30.993Z,50.09
2022-11-13T08:42:20.358Z,48.99
2022-11-13T08:45:11.431Z,46.99
2022-11-13T08:48:03.491Z,46.72
2022-11-13T08:50:55.526Z,45.82
2022-11-13T08:53:44.749Z,44.18
2022-11-13T08:56:36.213Z,43.13
2022-11-13T08:59:27.177Z,42.92
2022-11-13T09:02:18.015Z,41.28
2022-11-13T09:05:07.932Z,39.64
2022-11-13T09:07:59.943Z,39.90
2022-11-13T09:10:49.411Z,38.78
2022-11-13T09:13:43.749Z,40.78
2022-11-13T09:16:33.987Z,40.18
2022-11-13T09:19:23.082Z,41.02
2022-11-13T09:22:12.738Z,39.97
2022-11-13T09:25:02.269Z,39.78
2022-11-13T09:27:56.658Z,39.18
2022-11-13T09:30:45.950Z,38.82
2022-11-13T09:33:35.518Z,37.37
2022-11-13T09:36:24.506Z,38.21
2022-11-13T09:39:13.865Z,37.94
2022-11-13T09:42:06.540Z,37.66
2022-11-13T09:44:58.548Z,35.87
2022-11-13T09:47:48.645Z,36.10
2022-11-13T09:50:37.822Z,35.36
2022-11-13T09:53:27.416Z,34.87
2022-11-13T09:56:28.471Z,35.06
2022-11-13T09:59:25.984Z,34.94
2022-11-13T10:02:22.145Z,33.91
2022-11-13T10:05:16.232Z,33.16
2022-11-13T10:08:08.700Z,33.43
2022-11-13T10:11:06.241Z,34.28
2022-11-13T10:13:58.148Z,34.18
2022-11-13T10:16:49.866Z,34.14
2022-11-13T10:19:45.665Z,34.15
2022-11-13T10:22:40.199Z,34.02
2022-11-13T10:25:32.225Z,33.04
2022-11-13T10:31:39.464Z,33.11
2022-11-13T10:34:33.262Z,32.77
2022-11-13T10:37:36.048Z,32.80
2022-11-13T10:40:29.998Z,32.38
2022-11-13T10:43:20.699Z,32.82
2022-11-13T10:46:21.452Z,33.01
2022-11-13T10:49:20.891Z,32.16
2022-11-13T10:52:21.100Z,32.60
2022-11-13T10:55:21.772Z,31.73
2022-11-13T10:58:17.453Z,29.50
2022-11-13T11:01:16.542Z,29.66
2022-11-13T11:04:13.282Z,27.61
2022-11-13T11:07:20.184Z,24.98
2022-11-13T11:10:22.787Z,25.50
2022-11-13T11:13:20.837Z,26.01
2022-11-13T11:16:12.250Z,24.72
2022-11-13T11:19:03.763Z,23.27
2022-11-13T11:21:59.580Z,23.44
2022-11-13T11:24:56.091Z,23.69
2022-11-13T11:27:48.006Z,24.02
2022-11-13T11:30:41.459Z,24.08
2022-11-13T11:33:35.500Z,23.59
2022-11-13T11:36:29.918Z,22.43
2022-11-13T11:39:31.627Z,20.35
2022-11-13T11:42:26.694Z,20.81
2022-11-13T11:45:21.534Z,18.92
2022-11-13T11:48:14.141Z,16.74
2022-11-13T11:51:08.548Z,18.28
2022-11-13T11:54:04.270Z,16.13
2022-11-13T11:56:54.702Z,16.76
2022-11-13T11:59:56.366Z,16.62
2022-11-13T12:03:03.374Z,17.23
2022-11-13T12:05:58.560Z,17.26
2022-11-13T12:08:53.055Z,17.40
2022-11-13T12:11:46.792Z,19.34
2022-11-13T12:14:43.034Z,24.16
2022-11-13T12:17:45.325Z,25.86
2022-11-13T12:20:39.865Z,26.53
2022-11-13T12:23:41.537Z,27.02
2022-11-13T12:26:35.806Z,27.95
2022-11-13T12:29:38.235Z,29.33
2022-11-13T12:32:36.326Z,30.99
2022-11-13T12:35:26.321Z,32.67
2022-11-13T12:38:22.751Z,34.94
2022-11-13T12:41:19.163Z,36.95
2022-11-13T12:44:25.782Z,38.68
2022-11-13T12:47:15.271Z,40.24
2022-11-13T12:50:07.114Z,41.34
2022-11-13T12:53:04.551Z,42.05
2022-11-13T12:56:00.426Z,42.87
2022-11-13T12:59:28.551Z,44.12
2022-11-13T13:02:23.589Z,45.07
2022-11-13T13:05:27.544Z,45.63
2022-11-13T13:08:38.469Z,46.18
2022-11-13T13:11:33.450Z,47.58
2022-11-13T13:14:32.721Z,48.62
2022-11-13T13:17:24.499Z,49.57
2022-11-13T13:23:14.938Z,52.01
2022-11-13T13:26:18.115Z,53.20
2022-11-13T13:29:20.520Z,54.30
2022-11-13T13:32:27.576Z,55.25
2022-11-13T13:35:20.624Z,56.32
2022-11-13T13:38:17.011Z,56.74
2022-11-13T13:41:15.684Z,57.55
2022-11-13T13:44:20.519Z,58.52
2022-11-13T13:47:17.938Z,59.41
2022-11-13T13:50:09.495Z,60.08
2022-11-13T13:52:59.150Z,60.32
2022-11-13T13:55:50.692Z,60.43
2022-11-13T13:58:40.684Z,60.91
2022-11-13T14:01:31.762Z,61.45
2022-11-13T14:04:24.065Z,61.81
2022-11-13T14:07:24.585Z,62.27
2022-11-13T14:10:20.239Z,62.64
2022-11-13T14:13:15.166Z,62.93
2022-11-13T14:16:06.000Z,63.15
2022-11-13T14:19:05.738Z,63.55
2022-11-13T14:21:57.407Z,64.07
2022-11-13T14:24:49.431Z,64.67
2022-11-13T14:27:40.092Z,64.85
2022-11-13T14:30:30.519Z,65.24
2022-11-13T14:33:24.798Z,65.65
2022-11-13T14:36:14.174Z,65.73
2022-11-13T14:39:04.128Z,65.65
2022-11-13T14:41:56.010Z,64.91
2022-11-13T14:44:45.114Z,63.90
2022-11-13T14:47:37.623Z,62.11
2022-11-13T14:50:28.702Z,59.68
2022-11-13T14:53:29.285Z,57.62
2022-11-13T14:56:18.666Z,55.83
2022-11-13T14:59:18.328Z,54.91
2022-11-13T15:02:10.649Z,53.15
2022-11-13T15:04:59.745Z,51.68
2022-11-13T15:07:49.016Z,49.97
2022-11-13T15:10:39.171Z,49.66
2022-11-13T15:13:28.449Z,48.45
2022-11-13T15:16:20.009Z,48.39
2022-11-13T15:19:12.495Z,48.80
2022-11-13T15:25:15.732Z,48.03
2022-11-13T15:28:05.188Z,47.79
2022-11-13T15:30:54.654Z,48.17
2022-11-13T15:33:44.174Z,50.25
2022-11-13T15:36:33.392Z,54.07
2022-11-13T15:39:24.026Z,56.70
2022-11-13T15:42:17.231Z,58.86
2022-11-13T15:45:08.360Z,58.65
2022-11-13T15:47:58.877Z,59.15
2022-11-13T15:50:51.334Z,60.25
2022-11-13T15:53:40.344Z,61.42
2022-11-13T15:56:29.956Z,62.54
2022-11-13T15:59:19.562Z,63.91
2022-11-13T16:02:09.351Z,64.84
2022-11-13T16:04:58.750Z,65.64
2022-11-13T16:07:47.968Z,66.62
2022-11-13T16:10:39.367Z,67.32
2022-11-13T16:13:29.159Z,66.67
2022-11-13T16:16:21.854Z,64.72
2022-11-13T16:19:14.921Z,63.62
2022-11-13T16:22:04.232Z,62.58
2022-11-13T16:24:53.625Z,61.50
2022-11-13T16:27:43.024Z,60.01
2022-11-13T16:30:33.109Z,59.26
2022-11-13T16:33:29.571Z,58.67
2022-11-13T16:36:22.191Z,57.84
2022-11-13T16:39:17.246Z,56.71
2022-11-13T16:42:08.765Z,56.21
2022-11-13T16:45:02.425Z,55.61
2022-11-13T16:47:50.919Z,55.44
2022-11-13T16:50:40.070Z,54.93
2022-11-13T16:53:30.090Z,54.71
2022-11-13T16:56:24.713Z,54.15
2022-11-13T16:59:14.447Z,54.31
2022-11-13T17:02:04.013Z,54.17
2022-11-13T17:04:53.201Z,54.16
2022-11-13T17:07:42.481Z,54.00
2022-11-13T17:10:33.207Z,53.65
2022-11-13T17:13:22.756Z,53.31
2022-11-13T17:16:13.731Z,52.95
2022-11-13T17:19:03.157Z,52.72
2022-11-13T17:21:52.356Z,52.52
2022-11-13T17:24:41.592Z,51.80
2022-11-13T17:27:30.568Z,51.83
2022-11-13T17:30:20.140Z,51.66
2022-11-13T17:33:09.188Z,51.55
2022-11-13T17:35:58.863Z,51.40
2022-11-13T17:38:48.224Z,51.23
2022-11-13T17:41:37.909Z,50.93
2022-11-13T17:44:27.908Z,50.98
2022-11-13T17:47:17.708Z,50.92
2022-11-13T17:50:07.955Z,50.44
2022-11-13T17:52:57.726Z,50.51
2022-11-13T17:55:55.870Z,50.31
2022-11-13T17:58:49.338Z,50.26
2022-11-13T18:01:36.907Z,50.11
2022-11-13T18:04:26.511Z,50.02
2022-11-13T18:07:17.764Z,50.08
2022-11-13T18:10:11.797Z,50.18
2022-11-13T18:13:06.311Z,50.47
2022-11-13T18:15:54.582Z,50.55
2022-11-13T18:18:46.475Z,50.63
2022-11-13T18:21:36.979Z,50.43
2022-11-13T18:24:26.535Z,50.74
2022-11-13T18:27:15.757Z,50.44
2022-11-13T18:30:05.541Z,50.42
2022-11-13T18:32:55.214Z,50.76
2022-11-13T18:35:44.746Z,51.09
2022-11-13T18:38:35.466Z,51.19
2022-11-13T18:41:25.600Z,51.56
2022-11-13T18:44:15.178Z,51.58
2022-11-13T18:47:06.028Z,51.84
2022-11-13T18:49:55.590Z,51.99
2022-11-13T18:52:47.355Z,52.10
2022-11-13T18:55:39.165Z,52.31
2022-11-13T18:58:31.601Z,52.31
2022-11-13T19:01:23.231Z,52.55
2022-11-13T19:04:23.616Z,52.44
2022-11-13T19:07:13.441Z,52.81
2022-11-13T19:10:03.088Z,52.87
2022-11-13T19:12:52.072Z,53.21
2022-11-13T19:15:44.143Z,53.38
2022-11-13T19:18:33.947Z,53.74
2022-11-13T19:21:25.598Z,53.93
2022-11-13T19:24:17.610Z,54.20
2022-11-13T19:27:12.791Z,54.56
2022-11-13T19:30:01.805Z,54.82
2022-11-13T19:32:53.811Z,54.98
2022-11-13T19:35:43.283Z,55.30
2022-11-13T19:38:32.727Z,55.40
2022-11-13T19:41:22.295Z,55.71
2022-11-13T19:44:12.149Z,55.80
2022-11-13T19:47:01.889Z,56.20
2022-11-13T19:49:53.540Z,56.27
2022-11-13T19:52:42.952Z,56.18
2022-11-13T19:55:36.494Z,56.38
2022-11-13T19:58:26.181Z,56.55
2022-11-13T20:01:17.256Z,56.82
2022-11-13T20:04:09.877Z,57.05
2022-11-13T20:07:13.978Z,57.07
2022-11-13T20:10:03.872Z,57.44
2022-11-13T20:12:53.356Z,57.40
2022-11-13T20:15:45.179Z,57.40
2022-11-13T20:18:34.736Z,57.29
2022-11-13T20:21:30.361Z,57.28
2022-11-13T20:24:22.207Z,57.25
2022-11-13T20:27:11.491Z,57.38
2022-11-13T20:30:01.294Z,57.74
2022-11-13T20:32:51.422Z,57.64
2022-11-13T20:35:40.667Z,57.88
2022-11-13T20:38:30.593Z,57.89
2022-11-13T20:41:21.703Z,57.96
2022-11-13T20:44:12.449Z,58.12
2022-11-13T20:47:03.484Z,58.32
2022-11-13T20:50:01.538Z,58.27
2022-11-13T20:52:52.157Z,58.24
2022-11-13T20:55:42.736Z,58.21
2022-11-13T20:58:34.154Z,58.09
2022-11-13T21:01:30.361Z,57.96
2022-11-13T21:04:32.868Z,58.08
2022-11-13T21:07:24.161Z,58.16
2022-11-13T21:10:14.729Z,58.36
2022-11-13T21:13:04.068Z,58.54
2022-11-13T21:15:53.966Z,58.74
2022-11-13T21:18:46.141Z,58.91
2022-11-13T21:21:37.135Z,59.14
2022-11-13T21:24:29.059Z,59.47
2022-11-13T21:27:20.107Z,59.79
2022-11-13T21:30:14.659Z,60.15
2022-11-13T21:33:04.296Z,60.39
2022-11-13T21:36:07.417Z,60.63
2022-11-13T21:38:57.354Z,60.82
2022-11-13T21:41:46.774Z,60.90
2022-11-13T21:44:36.165Z,61.25
2022-11-13T21:47:25.541Z,61.46
2022-11-13T21:50:14.786Z,61.76
2022-11-13T21:53:06.980Z,61.90
2022-11-13T21:55:57.792Z,62.10
2022-11-13T21:58:51.942Z,62.34
2022-11-13T22:01:41.393Z,62.49
2022-11-13T22:04:30.586Z,62.85
2022-11-13T22:07:22.854Z,63.05
2022-11-13T22:10:12.437Z,63.46
2022-11-13T22:13:03.360Z,63.70
2022-11-13T22:15:52.625Z,63.71
2022-11-13T22:18:41.906Z,63.57
2022-11-13T22:21:31.769Z,63.68
2022-11-13T22:24:21.356Z,63.65
2022-11-13T22:27:10.407Z,63.64
2022-11-13T22:30:01.390Z,63.77
2022-11-13T22:32:50.785Z,63.92
2022-11-13T22:35:40.447Z,64.07
2022-11-13T22:38:30.046Z,64.30
2022-11-13T22:41:24.072Z,64.62
2022-11-13T22:44:19.865Z,64.82
2022-11-13T22:47:08.869Z,64.96
2022-11-13T22:50:00.762Z,65.41
2022-11-13T22:52:54.592Z,65.59
2022-11-13T22:55:49.468Z,65.74
2022-11-13T22:58:39.154Z,65.91
2022-11-13T23:01:32.342Z,65.93
2022-11-13T23:04:25.583Z,66.16
2022-11-13T23:07:15.297Z,66.34
2022-11-13T23:10:05.515Z,66.49
2022-11-13T23:12:55.036Z,66.70
2022-11-13T23:15:44.493Z,66.93
2022-11-13T23:18:42.433Z,67.25
2022-11-13T23:21:33.115Z,67.36
2022-11-13T23:24:25.758Z,67.18
2022-11-13T23:27:17.723Z,67.09
2022-11-13T23:30:12.269Z,67.09
2022-11-13T23:33:02.471Z,67.20
2022-11-13T23:36:02.685Z,67.01
2022-11-13T23:38:53.403Z,67.10
2022-11-13T23:41:42.866Z,67.08
2022-11-13T23:44:41.145Z,67.14
2022-11-13T23:47:39.883Z,67.18
2022-11-13T23:50:29.265Z,67.11
2022-11-13T23:53:19.565Z,66.87
2022-11-13T23:56:11.569Z,66.71
2022-11-13T23:59:01.260Z,66.99
